7K8 weather

Martin Field
So Sioux City, Nebraska, United States

Public forecast

Using degrees Fahrenheit for public forecast. Weather courtesy of forecast.io.

Closest aviation weather report (METAR) to Martin Field

Closest report is Sioux Gateway Airport/Brigadier General Bud Day Field, 5.0 nm (9.2 km) SE. Retrieved 2019/10/14 18:52 UTC (28 minutes ago):

KSUX 141852Z 15015G24KT 10SM CLR 16/03 A2988 RMK AO2 SLP124 T01560033

Closest aviation forecast (TAF) to Martin Field

Closest forecast is Sioux Gateway Airport/Brigadier General Bud Day Field, 5.0 nm (9.2 km) SE. Retrieved 2019/10/14 18:22 UTC (58 minutes ago):

TAF KSUX 141720Z 1418/1518 15013G19KT P6SM SCT250 FM150200 18008KT P6SM FEW250 FM150600 29011G20KT P6SM FEW020 FM150900 30016G25KT P6SM SCT030